METAR Data
IDs: Format: Raw Decoded Include TAF

Data at: 0759 UTC 03 Aug 2021

KCMA 030755Z AUTO 19003KT 9SM CLR 18/13 A2996 RMK AO2 SLP152 T01780133 402890144 $
KCMA 030655Z AUTO 00000KT 9SM CLR 18/14 A2996 RMK AO2 SLP151 T01830139 $
KCMA 030555Z AUTO 30003KT 10SM CLR 18/14 A2995 RMK AO2 SLP151 T01830139 10256 20183 50001 $
KCMA 030455Z AUTO 00000KT 10SM CLR 19/14 A2996 RMK AO2 SLP154 T01890139 $
KCMA 030355Z 26004KT 10SM CLR 19/14 A2996 RMK AO2 SLP153 T01940139 $
KCMA 030255Z 24005KT 10SM CLR 21/13 A2995 RMK AO2 SLP150 T02060133 56004 $
KCMA 030155Z 23006KT 10SM CLR 23/14 A2995 RMK AO2 SLP151 T02280139 $
KCMA 030055Z 26005KT 10SM CLR 24/13 A2996 RMK AO2 SLP153 T02440133 $
KCMA 022355Z 23008KT 10SM CLR 26/13 A2996 RMK AO2 SLP155 T02560128 10289 20256 56012 $
KCMA 022255Z 26010KT 10SM CLR 27/12 A2997 RMK AO2 SLP156 T02670122 $
KCMA 022155Z 26008KT 10SM CLR 28/13 A2998 RMK AO2 SLP161 T02780133 $
KCMA 022055Z 26009KT 10SM CLR 28/12 A3000 RMK AO2 SLP165 T02780122 58014 $
KCMA 021955Z 24008KT 10SM CLR 28/12 A3002 RMK AO2 SLP173 T02780117 $
KCMA 021855Z 27007KT 10SM CLR 27/13 A3003 RMK AO2 SLP175 T02720128 $
KCMA 021755Z 26008KT 10SM CLR 26/13 A3004 RMK AO2 SLP180 T02610133 10261 20144 58007 $
KCMA 021655Z VRB03KT 10SM CLR 25/12 A3005 RMK AO2 SLP184 T02500122 $
KCMA 021555Z 29005KT 10SM CLR 22/12 A3005 RMK AO2 SLP185 T02220117 $
KCMA 021455Z 00000KT 10SM CLR 19/12 A3006 RMK AO2 SLP187 T01940122 51013 $
KCMA 021355Z 00000KT 9SM CLR 16/11 A3005 RMK AO2 SLP185 T01560111 $
KCMA 021255Z AUTO 05003KT 10SM CLR 16/12 A3003 RMK AO2 SLP178 T01610117 $
KCMA 021155Z AUTO 04003KT 10SM CLR 16/12 A3002 RMK AO2 SLP174 T01560117 10189 20156 53003 $
KCMA 021055Z AUTO 00000KT 10SM CLR 17/12 A3002 RMK AO2 SLP173 T01670122 $
KCMA 020955Z AUTO 08003KT 10SM CLR 17/12 A3001 RMK AO2 SLP171 T01670122 $
KCMA 020855Z AUTO 00000KT 10SM CLR 17/13 A3001 RMK AO2 SLP171 T01720128 55004 $
KCMA 020755Z AUTO 00000KT 10SM CLR 17/12 A3001 RMK AO2 SLP171 T01720122 402720144 $
KCMA 020655Z AUTO 00000KT 10SM CLR 18/13 A3002 RMK AO2 SLP174 T01830133 $
KCMA 020555Z AUTO 27003KT 10SM CLR 18/14 A3002 RMK AO2 SLP175 T01830139 10250 20183 50005 $
KCMA 020455Z AUTO 28003KT 10SM CLR 19/14 A3003 RMK AO2 SLP176 T01890139 $
KCMA 020355Z AUTO 28003KT 10SM CLR 19/14 A3001 RMK AO2 SLP171 T01940139 $
KCMA 020255Z 26005KT 10SM CLR 21/14 A3001 RMK AO2 SLP171 T02060139 57002 $
KCMA 020155Z 24006KT 10SM CLR 22/13 A3001 RMK AO2 SLP171 T02220133 $
KCMA 020055Z 25008KT 10SM CLR 24/13 A3002 RMK AO2 SLP172 T02390133 $
KCMA 012355Z 27010KT 10SM CLR 25/13 A3002 RMK AO2 SLP172 T02500133 10272 20244 58008 $
KCMA 012255Z 27009KT 10SM CLR 25/14 A3003 RMK AO2 SLP175 T02500139 $
KCMA 012155Z 26010KT 10SM CLR 26/14 A3004 RMK AO2 SLP179 T02560139 $
KCMA 012055Z 25010KT 10SM CLR 27/13 A3004 RMK AO2 SLP181 T02670133 58007 $